sensor_id;sensor_type;location;lat;lon;timestamp;P1;durP1;ratioP1;P2;durP2;ratioP2
61015;SDS011;46902;52.920;6.536;2022-07-29T00:00:40;2.20;;;0.82;;
61015;SDS011;46902;52.920;6.536;2022-07-29T00:03:06;3.15;;;0.70;;
61015;SDS011;46902;52.920;6.536;2022-07-29T00:05:31;4.88;;;0.88;;
61015;SDS011;46902;52.920;6.536;2022-07-29T00:07:57;2.72;;;0.98;;
61015;SDS011;46902;52.920;6.536;2022-07-29T00:10:22;4.50;;;0.82;;
61015;SDS011;46902;52.920;6.536;2022-07-29T00:12:48;2.40;;;0.80;;
61015;SDS011;46902;52.920;6.536;2022-07-29T00:15:14;2.92;;;0.88;;
61015;SDS011;46902;52.920;6.536;2022-07-29T00:17:40;3.72;;;0.90;;
61015;SDS011;46902;52.920;6.536;2022-07-29T00:20:05;3.50;;;0.85;;
61015;SDS011;46902;52.920;6.536;2022-07-29T00:22:32;4.35;;;1.13;;
61015;SDS011;46902;52.920;6.536;2022-07-29T00:24:57;3.53;;;1.13;;
61015;SDS011;46902;52.920;6.536;2022-07-29T00:27:23;1.88;;;0.77;;
61015;SDS011;46902;52.920;6.536;2022-07-29T00:29:48;2.28;;;0.80;;
61015;SDS011;46902;52.920;6.536;2022-07-29T00:32:14;2.90;;;0.98;;
61015;SDS011;46902;52.920;6.536;2022-07-29T00:34:40;3.97;;;0.88;;
61015;SDS011;46902;52.920;6.536;2022-07-29T00:37:24;4.53;;;0.82;;
61015;SDS011;46902;52.920;6.536;2022-07-29T00:39:49;2.00;;;1.10;;
61015;SDS011;46902;52.920;6.536;2022-07-29T00:42:15;2.75;;;0.90;;
61015;SDS011;46902;52.920;6.536;2022-07-29T00:44:42;4.22;;;1.30;;
61015;SDS011;46902;52.920;6.536;2022-07-29T00:47:08;4.90;;;1.20;;
61015;SDS011;46902;52.920;6.536;2022-07-29T00:49:35;5.03;;;1.10;;
61015;SDS011;46902;52.920;6.536;2022-07-29T00:52:02;2.17;;;0.95;;
61015;SDS011;46902;52.920;6.536;2022-07-29T00:54:28;3.45;;;1.10;;
61015;SDS011;46902;52.920;6.536;2022-07-29T00:56:55;3.00;;;1.20;;
61015;SDS011;46902;52.920;6.536;2022-07-29T00:59:24;5.57;;;1.33;;
61015;SDS011;46902;52.920;6.536;2022-07-29T01:01:54;2.85;;;1.20;;
61015;SDS011;46902;52.920;6.536;2022-07-29T01:04:23;3.92;;;1.02;;
61015;SDS011;46902;52.920;6.536;2022-07-29T01:06:49;2.72;;;1.05;;
61015;SDS011;46902;52.920;6.536;2022-07-29T01:09:16;1.70;;;0.98;;
61015;SDS011;46902;52.920;6.536;2022-07-29T01:11:44;3.38;;;1.17;;
61015;SDS011;46902;52.920;6.536;2022-07-29T01:14:12;4.07;;;1.23;;
61015;SDS011;46902;52.920;6.536;2022-07-29T01:16:42;3.10;;;1.20;;
61015;SDS011;46902;52.920;6.536;2022-07-29T01:31:09;3.03;;;1.10;;
61015;SDS011;46902;52.920;6.536;2022-07-29T01:33:43;4.53;;;1.10;;
61015;SDS011;46902;52.920;6.536;2022-07-29T01:39:06;4.68;;;1.17;;
61015;SDS011;46902;52.920;6.536;2022-07-29T01:41:40;3.45;;;1.10;;
61015;SDS011;46902;52.920;6.536;2022-07-29T01:44:34;4.28;;;0.95;;
61015;SDS011;46902;52.920;6.536;2022-07-29T01:47:05;3.58;;;0.93;;
61015;SDS011;46902;52.920;6.536;2022-07-29T01:52:07;2.05;;;0.90;;
61015;SDS011;46902;52.920;6.536;2022-07-29T01:54:39;3.85;;;0.90;;
61015;SDS011;46902;52.920;6.536;2022-07-29T01:57:08;3.80;;;1.02;;
61015;SDS011;46902;52.920;6.536;2022-07-29T01:59:38;8.05;;;1.20;;
61015;SDS011;46902;52.920;6.536;2022-07-29T02:02:06;4.90;;;1.00;;
61015;SDS011;46902;52.920;6.536;2022-07-29T02:04:34;3.85;;;1.02;;
61015;SDS011;46902;52.920;6.536;2022-07-29T02:07:02;5.35;;;1.13;;
61015;SDS011;46902;52.920;6.536;2022-07-29T02:09:30;2.40;;;0.73;;
61015;SDS011;46902;52.920;6.536;2022-07-29T02:11:59;4.53;;;0.93;;
61015;SDS011;46902;52.920;6.536;2022-07-29T02:14:28;2.72;;;0.90;;
61015;SDS011;46902;52.920;6.536;2022-07-29T02:16:58;7.22;;;1.35;;
61015;SDS011;46902;52.920;6.536;2022-07-29T02:19:25;4.78;;;1.30;;
61015;SDS011;46902;52.920;6.536;2022-07-29T02:21:53;5.57;;;1.67;;
61015;SDS011;46902;52.920;6.536;2022-07-29T02:24:19;3.65;;;0.88;;
61015;SDS011;46902;52.920;6.536;2022-07-29T02:26:48;2.50;;;0.90;;
61015;SDS011;46902;52.920;6.536;2022-07-29T02:29:15;4.65;;;1.13;;
61015;SDS011;46902;52.920;6.536;2022-07-29T02:31:43;3.78;;;1.00;;
61015;SDS011;46902;52.920;6.536;2022-07-29T02:34:12;4.40;;;0.95;;
61015;SDS011;46902;52.920;6.536;2022-07-29T02:36:39;5.47;;;0.85;;
61015;SDS011;46902;52.920;6.536;2022-07-29T02:39:06;4.75;;;0.80;;
61015;SDS011;46902;52.920;6.536;2022-07-29T02:41:43;6.55;;;1.52;;
61015;SDS011;46902;52.920;6.536;2022-07-29T02:44:13;4.07;;;1.20;;
61015;SDS011;46902;52.920;6.536;2022-07-29T02:46:54;4.30;;;0.80;;
61015;SDS011;46902;52.920;6.536;2022-07-29T02:49:36;4.45;;;0.90;;
61015;SDS011;46902;52.920;6.536;2022-07-29T02:52:26;4.00;;;1.13;;
61015;SDS011;46902;52.920;6.536;2022-07-29T02:54:57;4.15;;;1.05;;
61015;SDS011;46902;52.920;6.536;2022-07-29T02:57:32;4.68;;;1.15;;
61015;SDS011;46902;52.920;6.536;2022-07-29T03:00:03;2.33;;;0.90;;
61015;SDS011;46902;52.920;6.536;2022-07-29T03:02:33;6.60;;;1.27;;
61015;SDS011;46902;52.920;6.536;2022-07-29T03:05:01;4.95;;;1.23;;
61015;SDS011;46902;52.920;6.536;2022-07-29T03:07:29;4.63;;;0.85;;
61015;SDS011;46902;52.920;6.536;2022-07-29T03:09:57;5.68;;;1.20;;
61015;SDS011;46902;52.920;6.536;2022-07-29T03:12:23;2.95;;;1.27;;
61015;SDS011;46902;52.920;6.536;2022-07-29T03:14:51;7.60;;;1.00;;
61015;SDS011;46902;52.920;6.536;2022-07-29T03:17:17;3.22;;;1.05;;
61015;SDS011;46902;52.920;6.536;2022-07-29T03:19:44;4.75;;;1.50;;
61015;SDS011;46902;52.920;6.536;2022-07-29T03:22:10;3.30;;;1.27;;
61015;SDS011;46902;52.920;6.536;2022-07-29T03:24:36;6.90;;;1.10;;
61015;SDS011;46902;52.920;6.536;2022-07-29T03:27:03;3.75;;;1.17;;
61015;SDS011;46902;52.920;6.536;2022-07-29T03:29:30;2.95;;;1.02;;
61015;SDS011;46902;52.920;6.536;2022-07-29T03:31:56;2.70;;;0.90;;
61015;SDS011;46902;52.920;6.536;2022-07-29T03:34:22;3.20;;;1.02;;
61015;SDS011;46902;52.920;6.536;2022-07-29T03:36:47;6.88;;;1.15;;
61015;SDS011;46902;52.920;6.536;2022-07-29T03:39:15;5.88;;;1.15;;
61015;SDS011;46902;52.920;6.536;2022-07-29T03:41:44;3.92;;;1.10;;
61015;SDS011;46902;52.920;6.536;2022-07-29T03:44:12;4.55;;;1.13;;
61015;SDS011;46902;52.920;6.536;2022-07-29T03:46:40;3.10;;;1.17;;
61015;SDS011;46902;52.920;6.536;2022-07-29T03:49:08;6.25;;;1.23;;
61015;SDS011;46902;52.920;6.536;2022-07-29T03:51:35;4.82;;;1.13;;
61015;SDS011;46902;52.920;6.536;2022-07-29T03:54:02;4.20;;;1.35;;
61015;SDS011;46902;52.920;6.536;2022-07-29T03:56:28;8.25;;;1.10;;
61015;SDS011;46902;52.920;6.536;2022-07-29T03:58:56;5.07;;;1.20;;
61015;SDS011;46902;52.920;6.536;2022-07-29T04:01:23;5.00;;;1.27;;
61015;SDS011;46902;52.920;6.536;2022-07-29T04:03:50;4.13;;;1.35;;
61015;SDS011;46902;52.920;6.536;2022-07-29T04:06:16;3.03;;;0.93;;
61015;SDS011;46902;52.920;6.536;2022-07-29T04:08:41;7.10;;;1.20;;
61015;SDS011;46902;52.920;6.536;2022-07-29T04:11:07;6.03;;;1.10;;
61015;SDS011;46902;52.920;6.536;2022-07-29T04:13:33;6.93;;;0.98;;
61015;SDS011;46902;52.920;6.536;2022-07-29T04:15:58;2.75;;;1.10;;
61015;SDS011;46902;52.920;6.536;2022-07-29T04:18:24;3.28;;;1.20;;
61015;SDS011;46902;52.920;6.536;2022-07-29T04:20:50;2.60;;;1.17;;
61015;SDS011;46902;52.920;6.536;2022-07-29T04:23:15;5.00;;;1.10;;
61015;SDS011;46902;52.920;6.536;2022-07-29T04:25:41;5.22;;;1.17;;
61015;SDS011;46902;52.920;6.536;2022-07-29T04:28:08;3.25;;;1.20;;
61015;SDS011;46902;52.920;6.536;2022-07-29T04:30:34;3.83;;;1.23;;
61015;SDS011;46902;52.920;6.536;2022-07-29T04:33:01;5.57;;;1.25;;
61015;SDS011;46902;52.920;6.536;2022-07-29T04:35:29;3.00;;;1.20;;
61015;SDS011;46902;52.920;6.536;2022-07-29T04:37:56;3.97;;;1.42;;
61015;SDS011;46902;52.920;6.536;2022-07-29T04:40:21;4.95;;;1.30;;
61015;SDS011;46902;52.920;6.536;2022-07-29T04:42:47;3.92;;;1.20;;
61015;SDS011;46902;52.920;6.536;2022-07-29T04:45:13;4.47;;;1.13;;
61015;SDS011;46902;52.920;6.536;2022-07-29T04:47:39;4.65;;;1.13;;
61015;SDS011;46902;52.920;6.536;2022-07-29T04:50:04;3.90;;;1.27;;
61015;SDS011;46902;52.920;6.536;2022-07-29T04:52:32;3.72;;;1.20;;
61015;SDS011;46902;52.920;6.536;2022-07-29T04:54:57;4.85;;;1.17;;
61015;SDS011;46902;52.920;6.536;2022-07-29T04:57:23;6.43;;;1.45;;
61015;SDS011;46902;52.920;6.536;2022-07-29T04:59:48;6.78;;;1.55;;
61015;SDS011;46902;52.920;6.536;2022-07-29T05:02:14;6.07;;;1.25;;
61015;SDS011;46902;52.920;6.536;2022-07-29T05:04:40;3.95;;;1.30;;
61015;SDS011;46902;52.920;6.536;2022-07-29T05:07:05;4.65;;;1.48;;
61015;SDS011;46902;52.920;6.536;2022-07-29T05:09:31;3.30;;;1.23;;
61015;SDS011;46902;52.920;6.536;2022-07-29T05:11:57;4.38;;;1.23;;
61015;SDS011;46902;52.920;6.536;2022-07-29T05:14:23;2.30;;;1.20;;
61015;SDS011;46902;52.920;6.536;2022-07-29T05:16:48;5.68;;;1.50;;
61015;SDS011;46902;52.920;6.536;2022-07-29T05:19:16;5.43;;;1.35;;
61015;SDS011;46902;52.920;6.536;2022-07-29T05:21:42;4.60;;;1.13;;
61015;SDS011;46902;52.920;6.536;2022-07-29T05:24:07;4.45;;;1.40;;
61015;SDS011;46902;52.920;6.536;2022-07-29T05:26:33;6.13;;;1.10;;
61015;SDS011;46902;52.920;6.536;2022-07-29T05:28:59;3.40;;;1.13;;
61015;SDS011;46902;52.920;6.536;2022-07-29T05:31:24;4.40;;;1.17;;
61015;SDS011;46902;52.920;6.536;2022-07-29T05:33:50;5.00;;;1.17;;
61015;SDS011;46902;52.920;6.536;2022-07-29T05:36:15;6.00;;;1.35;;
61015;SDS011;46902;52.920;6.536;2022-07-29T05:38:41;3.03;;;1.17;;
61015;SDS011;46902;52.920;6.536;2022-07-29T05:41:06;6.32;;;1.80;;
61015;SDS011;46902;52.920;6.536;2022-07-29T05:43:32;5.63;;;1.33;;
61015;SDS011;46902;52.920;6.536;2022-07-29T05:45:58;3.45;;;1.25;;
61015;SDS011;46902;52.920;6.536;2022-07-29T05:48:24;7.53;;;1.33;;
61015;SDS011;46902;52.920;6.536;2022-07-29T05:50:50;4.32;;;1.88;;
61015;SDS011;46902;52.920;6.536;2022-07-29T05:53:15;3.88;;;1.25;;
61015;SDS011;46902;52.920;6.536;2022-07-29T05:55:41;6.28;;;1.52;;
61015;SDS011;46902;52.920;6.536;2022-07-29T05:58:07;3.88;;;1.30;;
61015;SDS011;46902;52.920;6.536;2022-07-29T06:00:32;3.60;;;1.40;;
61015;SDS011;46902;52.920;6.536;2022-07-29T06:02:59;5.40;;;1.50;;
61015;SDS011;46902;52.920;6.536;2022-07-29T06:05:24;6.47;;;1.50;;
61015;SDS011;46902;52.920;6.536;2022-07-29T06:07:50;5.50;;;1.50;;
61015;SDS011;46902;52.920;6.536;2022-07-29T06:10:15;4.15;;;1.35;;
61015;SDS011;46902;52.920;6.536;2022-07-29T06:12:41;7.07;;;1.88;;
61015;SDS011;46902;52.920;6.536;2022-07-29T06:15:07;5.05;;;1.30;;
61015;SDS011;46902;52.920;6.536;2022-07-29T06:17:33;6.50;;;1.60;;
61015;SDS011;46902;52.920;6.536;2022-07-29T06:19:58;5.45;;;1.70;;
61015;SDS011;46902;52.920;6.536;2022-07-29T06:22:24;7.45;;;1.92;;
61015;SDS011;46902;52.920;6.536;2022-07-29T06:24:50;4.10;;;1.45;;
61015;SDS011;46902;52.920;6.536;2022-07-29T06:27:15;4.15;;;1.50;;
61015;SDS011;46902;52.920;6.536;2022-07-29T06:29:41;3.70;;;1.60;;
61015;SDS011;46902;52.920;6.536;2022-07-29T06:32:06;4.22;;;1.20;;
61015;SDS011;46902;52.920;6.536;2022-07-29T06:34:34;4.28;;;1.40;;
61015;SDS011;46902;52.920;6.536;2022-07-29T06:37:00;6.20;;;1.70;;
61015;SDS011;46902;52.920;6.536;2022-07-29T06:39:30;5.93;;;1.58;;
61015;SDS011;46902;52.920;6.536;2022-07-29T06:41:55;2.17;;;1.27;;
61015;SDS011;46902;52.920;6.536;2022-07-29T06:44:21;8.27;;;1.85;;
61015;SDS011;46902;52.920;6.536;2022-07-29T06:46:46;3.50;;;1.30;;
61015;SDS011;46902;52.920;6.536;2022-07-29T06:49:15;5.07;;;1.35;;
61015;SDS011;46902;52.920;6.536;2022-07-29T06:51:40;9.88;;;1.85;;
61015;SDS011;46902;52.920;6.536;2022-07-29T06:54:06;5.65;;;1.33;;
61015;SDS011;46902;52.920;6.536;2022-07-29T06:56:32;8.80;;;1.63;;
61015;SDS011;46902;52.920;6.536;2022-07-29T06:59:00;6.65;;;1.50;;
61015;SDS011;46902;52.920;6.536;2022-07-29T07:01:26;7.60;;;1.77;;
61015;SDS011;46902;52.920;6.536;2022-07-29T07:03:51;5.85;;;1.98;;
61015;SDS011;46902;52.920;6.536;2022-07-29T07:06:17;5.40;;;1.30;;
61015;SDS011;46902;52.920;6.536;2022-07-29T07:08:43;3.38;;;1.52;;
61015;SDS011;46902;52.920;6.536;2022-07-29T07:11:08;7.30;;;1.60;;
61015;SDS011;46902;52.920;6.536;2022-07-29T07:13:34;4.15;;;1.40;;
61015;SDS011;46902;52.920;6.536;2022-07-29T07:16:00;5.47;;;1.50;;
61015;SDS011;46902;52.920;6.536;2022-07-29T07:18:26;5.07;;;1.65;;
61015;SDS011;46902;52.920;6.536;2022-07-29T07:20:52;9.70;;;1.80;;
61015;SDS011;46902;52.920;6.536;2022-07-29T07:23:18;6.32;;;1.88;;
61015;SDS011;46902;52.920;6.536;2022-07-29T07:25:44;6.95;;;1.90;;
61015;SDS011;46902;52.920;6.536;2022-07-29T07:28:10;8.00;;;1.95;;
61015;SDS011;46902;52.920;6.536;2022-07-29T07:30:35;5.38;;;1.70;;
61015;SDS011;46902;52.920;6.536;2022-07-29T07:33:01;5.45;;;1.60;;
61015;SDS011;46902;52.920;6.536;2022-07-29T07:35:27;5.82;;;1.70;;
61015;SDS011;46902;52.920;6.536;2022-07-29T07:37:54;3.70;;;1.23;;
61015;SDS011;46902;52.920;6.536;2022-07-29T07:40:20;8.77;;;1.63;;
61015;SDS011;46902;52.920;6.536;2022-07-29T07:42:46;6.28;;;1.45;;
61015;SDS011;46902;52.920;6.536;2022-07-29T07:45:12;3.55;;;1.10;;
61015;SDS011;46902;52.920;6.536;2022-07-29T07:47:37;6.18;;;1.77;;
61015;SDS011;46902;52.920;6.536;2022-07-29T07:50:07;6.53;;;1.35;;
61015;SDS011;46902;52.920;6.536;2022-07-29T07:52:37;9.07;;;1.60;;
61015;SDS011;46902;52.920;6.536;2022-07-29T07:55:18;2.75;;;1.30;;
61015;SDS011;46902;52.920;6.536;2022-07-29T07:57:45;4.30;;;1.60;;
61015;SDS011;46902;52.920;6.536;2022-07-29T08:00:12;4.30;;;1.70;;
61015;SDS011;46902;52.920;6.536;2022-07-29T08:02:39;4.22;;;1.63;;
61015;SDS011;46902;52.920;6.536;2022-07-29T08:05:05;6.18;;;1.60;;
61015;SDS011;46902;52.920;6.536;2022-07-29T08:07:32;3.67;;;1.30;;
61015;SDS011;46902;52.920;6.536;2022-07-29T08:09:58;2.97;;;1.60;;
61015;SDS011;46902;52.920;6.536;2022-07-29T08:12:24;7.35;;;1.80;;
61015;SDS011;46902;52.920;6.536;2022-07-29T08:14:49;5.25;;;1.80;;
61015;SDS011;46902;52.920;6.536;2022-07-29T08:17:15;6.25;;;1.90;;
61015;SDS011;46902;52.920;6.536;2022-07-29T08:19:40;7.35;;;1.80;;
61015;SDS011;46902;52.920;6.536;2022-07-29T08:22:06;6.28;;;1.80;;
61015;SDS011;46902;52.920;6.536;2022-07-29T08:24:32;4.78;;;1.42;;
61015;SDS011;46902;52.920;6.536;2022-07-29T08:27:11;4.60;;;1.60;;
61015;SDS011;46902;52.920;6.536;2022-07-29T08:29:37;5.05;;;1.88;;
61015;SDS011;46902;52.920;6.536;2022-07-29T08:32:03;5.90;;;1.50;;
61015;SDS011;46902;52.920;6.536;2022-07-29T08:34:29;6.28;;;1.77;;
61015;SDS011;46902;52.920;6.536;2022-07-29T08:36:55;6.15;;;1.65;;
61015;SDS011;46902;52.920;6.536;2022-07-29T08:39:21;5.63;;;1.85;;
61015;SDS011;46902;52.920;6.536;2022-07-29T08:41:48;5.47;;;1.60;;
61015;SDS011;46902;52.920;6.536;2022-07-29T08:44:15;4.85;;;1.73;;
61015;SDS011;46902;52.920;6.536;2022-07-29T08:46:42;7.53;;;2.00;;
61015;SDS011;46902;52.920;6.536;2022-07-29T08:49:08;5.35;;;1.83;;
61015;SDS011;46902;52.920;6.536;2022-07-29T08:51:33;5.75;;;1.60;;
61015;SDS011;46902;52.920;6.536;2022-07-29T08:54:00;6.53;;;1.73;;
61015;SDS011;46902;52.920;6.536;2022-07-29T08:56:26;5.28;;;1.35;;
61015;SDS011;46902;52.920;6.536;2022-07-29T08:58:52;6.55;;;1.83;;
61015;SDS011;46902;52.920;6.536;2022-07-29T09:01:22;4.15;;;1.70;;
61015;SDS011;46902;52.920;6.536;2022-07-29T09:03:49;7.15;;;1.83;;
61015;SDS011;46902;52.920;6.536;2022-07-29T09:06:17;6.13;;;1.77;;
61015;SDS011;46902;52.920;6.536;2022-07-29T09:08:44;5.15;;;1.63;;
61015;SDS011;46902;52.920;6.536;2022-07-29T09:11:10;6.75;;;2.33;;
61015;SDS011;46902;52.920;6.536;2022-07-29T09:13:37;5.13;;;1.77;;
61015;SDS011;46902;52.920;6.536;2022-07-29T09:16:02;3.42;;;1.70;;
61015;SDS011;46902;52.920;6.536;2022-07-29T09:21:10;7.35;;;2.00;;
61015;SDS011;46902;52.920;6.536;2022-07-29T09:26:44;7.03;;;1.77;;
61015;SDS011;46902;52.920;6.536;2022-07-29T09:29:14;7.00;;;2.30;;
61015;SDS011;46902;52.920;6.536;2022-07-29T09:31:42;6.07;;;1.80;;
61015;SDS011;46902;52.920;6.536;2022-07-29T09:34:10;4.07;;;1.63;;
61015;SDS011;46902;52.920;6.536;2022-07-29T09:36:46;6.85;;;2.00;;
61015;SDS011;46902;52.920;6.536;2022-07-29T09:39:13;6.95;;;2.00;;
61015;SDS011;46902;52.920;6.536;2022-07-29T09:41:44;5.10;;;1.90;;
61015;SDS011;46902;52.920;6.536;2022-07-29T09:44:11;6.07;;;1.52;;
61015;SDS011;46902;52.920;6.536;2022-07-29T09:46:36;4.43;;;1.63;;
61015;SDS011;46902;52.920;6.536;2022-07-29T09:49:06;6.35;;;1.60;;
61015;SDS011;46902;52.920;6.536;2022-07-29T09:51:39;6.43;;;1.80;;
61015;SDS011;46902;52.920;6.536;2022-07-29T09:54:21;5.57;;;1.65;;
61015;SDS011;46902;52.920;6.536;2022-07-29T09:57:08;4.93;;;1.67;;
61015;SDS011;46902;52.920;6.536;2022-07-29T09:59:55;4.90;;;1.92;;
61015;SDS011;46902;52.920;6.536;2022-07-29T10:02:22;6.95;;;1.67;;
61015;SDS011;46902;52.920;6.536;2022-07-29T10:04:47;11.38;;;2.10;;
61015;SDS011;46902;52.920;6.536;2022-07-29T10:07:13;8.63;;;2.58;;
61015;SDS011;46902;52.920;6.536;2022-07-29T10:09:39;7.63;;;2.25;;
61015;SDS011;46902;52.920;6.536;2022-07-29T10:12:17;5.40;;;2.28;;
61015;SDS011;46902;52.920;6.536;2022-07-29T10:14:43;5.00;;;1.63;;
61015;SDS011;46902;52.920;6.536;2022-07-29T10:17:09;7.03;;;1.92;;
61015;SDS011;46902;52.920;6.536;2022-07-29T10:19:36;7.25;;;2.15;;
61015;SDS011;46902;52.920;6.536;2022-07-29T10:22:04;6.28;;;2.03;;
61015;SDS011;46902;52.920;6.536;2022-07-29T10:24:32;9.07;;;2.47;;
61015;SDS011;46902;52.920;6.536;2022-07-29T10:27:00;6.00;;;1.90;;
61015;SDS011;46902;52.920;6.536;2022-07-29T10:29:28;7.72;;;2.47;;
61015;SDS011;46902;52.920;6.536;2022-07-29T10:32:10;8.27;;;2.20;;
61015;SDS011;46902;52.920;6.536;2022-07-29T10:37:22;8.23;;;2.65;;
61015;SDS011;46902;52.920;6.536;2022-07-29T10:40:15;5.72;;;2.42;;
61015;SDS011;46902;52.920;6.536;2022-07-29T10:43:23;7.90;;;2.42;;
61015;SDS011;46902;52.920;6.536;2022-07-29T10:45:55;6.95;;;2.03;;
61015;SDS011;46902;52.920;6.536;2022-07-29T10:48:22;5.50;;;2.05;;
61015;SDS011;46902;52.920;6.536;2022-07-29T10:51:01;5.25;;;2.10;;
61015;SDS011;46902;52.920;6.536;2022-07-29T10:56:30;7.82;;;3.20;;
61015;SDS011;46902;52.920;6.536;2022-07-29T11:01:51;11.10;;;6.38;;
61015;SDS011;46902;52.920;6.536;2022-07-29T11:07:10;9.35;;;3.22;;
61015;SDS011;46902;52.920;6.536;2022-07-29T11:09:36;4.32;;;2.15;;
61015;SDS011;46902;52.920;6.536;2022-07-29T11:12:03;6.65;;;2.50;;
61015;SDS011;46902;52.920;6.536;2022-07-29T11:14:54;5.60;;;1.95;;
61015;SDS011;46902;52.920;6.536;2022-07-29T11:17:17;6.03;;;1.95;;
61015;SDS011;46902;52.920;6.536;2022-07-29T11:19:43;7.15;;;2.35;;
61015;SDS011;46902;52.920;6.536;2022-07-29T11:22:09;9.70;;;2.20;;
61015;SDS011;46902;52.920;6.536;2022-07-29T11:24:36;8.27;;;2.33;;
61015;SDS011;46902;52.920;6.536;2022-07-29T11:29:47;6.38;;;2.53;;
61015;SDS011;46902;52.920;6.536;2022-07-29T11:32:14;10.95;;;3.47;;
61015;SDS011;46902;52.920;6.536;2022-07-29T11:34:41;6.13;;;2.35;;
61015;SDS011;46902;52.920;6.536;2022-07-29T11:39:37;7.93;;;2.10;;
61015;SDS011;46902;52.920;6.536;2022-07-29T11:44:55;12.10;;;3.05;;
61015;SDS011;46902;52.920;6.536;2022-07-29T11:47:24;5.32;;;1.85;;
61015;SDS011;46902;52.920;6.536;2022-07-29T11:49:51;7.40;;;2.20;;
61015;SDS011;46902;52.920;6.536;2022-07-29T11:52:17;8.52;;;2.72;;
61015;SDS011;46902;52.920;6.536;2022-07-29T11:54:44;8.93;;;2.50;;
61015;SDS011;46902;52.920;6.536;2022-07-29T11:57:13;8.68;;;2.15;;
61015;SDS011;46902;52.920;6.536;2022-07-29T11:59:41;7.60;;;2.25;;
61015;SDS011;46902;52.920;6.536;2022-07-29T12:02:08;6.45;;;1.98;;
61015;SDS011;46902;52.920;6.536;2022-07-29T12:04:53;9.15;;;2.00;;
61015;SDS011;46902;52.920;6.536;2022-07-29T12:07:27;8.93;;;2.70;;
61015;SDS011;46902;52.920;6.536;2022-07-29T12:09:53;5.50;;;2.00;;
61015;SDS011;46902;52.920;6.536;2022-07-29T12:12:19;6.75;;;2.28;;
61015;SDS011;46902;52.920;6.536;2022-07-29T12:14:45;6.28;;;2.85;;
61015;SDS011;46902;52.920;6.536;2022-07-29T12:17:27;8.18;;;2.97;;
61015;SDS011;46902;52.920;6.536;2022-07-29T12:19:55;4.90;;;2.72;;
61015;SDS011;46902;52.920;6.536;2022-07-29T12:24:54;5.07;;;2.10;;
61015;SDS011;46902;52.920;6.536;2022-07-29T12:27:21;7.07;;;2.08;;
61015;SDS011;46902;52.920;6.536;2022-07-29T12:30:00;6.00;;;2.00;;
61015;SDS011;46902;52.920;6.536;2022-07-29T12:35:30;4.90;;;1.45;;
61015;SDS011;46902;52.920;6.536;2022-07-29T12:37:56;5.18;;;1.92;;
61015;SDS011;46902;52.920;6.536;2022-07-29T12:40:24;6.38;;;1.90;;
61015;SDS011;46902;52.920;6.536;2022-07-29T12:43:10;6.20;;;1.75;;
61015;SDS011;46902;52.920;6.536;2022-07-29T12:45:38;7.85;;;2.03;;
61015;SDS011;46902;52.920;6.536;2022-07-29T12:48:05;8.13;;;1.80;;
61015;SDS011;46902;52.920;6.536;2022-07-29T12:50:33;5.68;;;1.80;;
61015;SDS011;46902;52.920;6.536;2022-07-29T12:53:12;6.07;;;1.77;;
61015;SDS011;46902;52.920;6.536;2022-07-29T12:55:39;7.18;;;2.28;;
61015;SDS011;46902;52.920;6.536;2022-07-29T12:58:35;4.63;;;1.60;;
61015;SDS011;46902;52.920;6.536;2022-07-29T13:01:06;6.65;;;1.77;;
61015;SDS011;46902;52.920;6.536;2022-07-29T13:11:40;9.02;;;1.60;;
61015;SDS011;46902;52.920;6.536;2022-07-29T13:14:07;5.75;;;2.85;;
61015;SDS011;46902;52.920;6.536;2022-07-29T13:16:34;14.82;;;5.68;;
61015;SDS011;46902;52.920;6.536;2022-07-29T13:19:04;7.57;;;3.65;;
61015;SDS011;46902;52.920;6.536;2022-07-29T13:21:34;7.68;;;1.83;;
61015;SDS011;46902;52.920;6.536;2022-07-29T13:24:01;5.13;;;1.60;;
61015;SDS011;46902;52.920;6.536;2022-07-29T13:26:26;4.60;;;1.45;;
61015;SDS011;46902;52.920;6.536;2022-07-29T13:28:52;7.03;;;1.70;;
61015;SDS011;46902;52.920;6.536;2022-07-29T13:31:19;9.23;;;1.90;;
61015;SDS011;46902;52.920;6.536;2022-07-29T13:33:45;9.95;;;1.67;;
61015;SDS011;46902;52.920;6.536;2022-07-29T13:36:10;13.65;;;2.08;;
61015;SDS011;46902;52.920;6.536;2022-07-29T13:38:36;5.30;;;1.65;;
61015;SDS011;46902;52.920;6.536;2022-07-29T13:41:02;7.13;;;1.40;;
61015;SDS011;46902;52.920;6.536;2022-07-29T13:43:27;7.50;;;1.65;;
61015;SDS011;46902;52.920;6.536;2022-07-29T13:45:53;9.23;;;1.55;;
61015;SDS011;46902;52.920;6.536;2022-07-29T13:48:18;5.45;;;1.23;;
61015;SDS011;46902;52.920;6.536;2022-07-29T13:50:44;6.88;;;1.67;;
61015;SDS011;46902;52.920;6.536;2022-07-29T13:53:10;5.47;;;1.85;;
61015;SDS011;46902;52.920;6.536;2022-07-29T13:55:36;5.90;;;1.42;;
61015;SDS011;46902;52.920;6.536;2022-07-29T13:58:02;4.78;;;1.52;;
61015;SDS011;46902;52.920;6.536;2022-07-29T14:00:27;7.60;;;1.73;;
61015;SDS011;46902;52.920;6.536;2022-07-29T14:02:53;4.82;;;1.52;;
61015;SDS011;46902;52.920;6.536;2022-07-29T14:05:19;8.25;;;1.65;;
61015;SDS011;46902;52.920;6.536;2022-07-29T14:07:44;7.63;;;1.58;;
61015;SDS011;46902;52.920;6.536;2022-07-29T14:10:10;4.95;;;1.40;;
61015;SDS011;46902;52.920;6.536;2022-07-29T14:12:36;8.90;;;1.73;;
61015;SDS011;46902;52.920;6.536;2022-07-29T14:15:01;8.68;;;1.90;;
61015;SDS011;46902;52.920;6.536;2022-07-29T14:17:27;5.20;;;1.23;;
61015;SDS011;46902;52.920;6.536;2022-07-29T14:19:53;6.75;;;1.58;;
61015;SDS011;46902;52.920;6.536;2022-07-29T14:22:18;4.55;;;1.70;;
61015;SDS011;46902;52.920;6.536;2022-07-29T14:24:44;9.80;;;1.95;;
61015;SDS011;46902;52.920;6.536;2022-07-29T14:27:10;6.05;;;1.77;;
61015;SDS011;46902;52.920;6.536;2022-07-29T14:29:36;6.50;;;1.23;;
61015;SDS011;46902;52.920;6.536;2022-07-29T14:32:02;5.90;;;1.58;;
61015;SDS011;46902;52.920;6.536;2022-07-29T14:34:28;5.72;;;1.70;;
61015;SDS011;46902;52.920;6.536;2022-07-29T14:36:54;6.07;;;1.45;;
61015;SDS011;46902;52.920;6.536;2022-07-29T14:39:21;4.95;;;1.48;;
61015;SDS011;46902;52.920;6.536;2022-07-29T14:41:48;7.32;;;1.65;;
61015;SDS011;46902;52.920;6.536;2022-07-29T14:44:16;6.65;;;1.60;;
61015;SDS011;46902;52.920;6.536;2022-07-29T14:46:42;7.47;;;1.60;;
61015;SDS011;46902;52.920;6.536;2022-07-29T14:49:08;9.98;;;1.75;;
61015;SDS011;46902;52.920;6.536;2022-07-29T14:51:33;7.80;;;1.80;;
61015;SDS011;46902;52.920;6.536;2022-07-29T14:53:59;5.20;;;1.48;;
61015;SDS011;46902;52.920;6.536;2022-07-29T14:56:25;7.18;;;2.05;;
61015;SDS011;46902;52.920;6.536;2022-07-29T14:58:51;6.85;;;1.67;;
61015;SDS011;46902;52.920;6.536;2022-07-29T15:01:17;3.92;;;1.60;;
61015;SDS011;46902;52.920;6.536;2022-07-29T15:03:43;9.88;;;1.80;;
61015;SDS011;46902;52.920;6.536;2022-07-29T15:06:08;11.13;;;1.60;;
61015;SDS011;46902;52.920;6.536;2022-07-29T15:08:34;4.75;;;1.33;;
61015;SDS011;46902;52.920;6.536;2022-07-29T15:10:59;9.18;;;1.50;;
61015;SDS011;46902;52.920;6.536;2022-07-29T15:13:25;8.82;;;1.52;;
61015;SDS011;46902;52.920;6.536;2022-07-29T15:15:51;3.90;;;1.50;;
61015;SDS011;46902;52.920;6.536;2022-07-29T15:18:17;4.78;;;1.63;;
61015;SDS011;46902;52.920;6.536;2022-07-29T15:20:43;4.90;;;1.70;;
61015;SDS011;46902;52.920;6.536;2022-07-29T15:23:11;8.25;;;1.70;;
61015;SDS011;46902;52.920;6.536;2022-07-29T15:25:37;7.60;;;1.70;;
61015;SDS011;46902;52.920;6.536;2022-07-29T15:28:03;8.38;;;1.60;;
61015;SDS011;46902;52.920;6.536;2022-07-29T15:30:31;10.02;;;1.65;;
61015;SDS011;46902;52.920;6.536;2022-07-29T15:32:58;4.75;;;1.60;;
61015;SDS011;46902;52.920;6.536;2022-07-29T15:35:24;6.10;;;1.67;;
61015;SDS011;46902;52.920;6.536;2022-07-29T15:37:49;8.13;;;2.13;;
61015;SDS011;46902;52.920;6.536;2022-07-29T15:40:15;6.32;;;1.58;;
61015;SDS011;46902;52.920;6.536;2022-07-29T15:42:41;4.68;;;1.20;;
61015;SDS011;46902;52.920;6.536;2022-07-29T15:45:06;8.40;;;1.60;;
61015;SDS011;46902;52.920;6.536;2022-07-29T15:47:34;6.82;;;1.30;;